createdAt,value
2023-05-10T00:00:38.694Z,8.55
2023-05-10T00:03:41.426Z,8.53
2023-05-10T00:06:43.538Z,8.51
2023-05-10T00:09:45.447Z,8.47
2023-05-10T00:12:47.467Z,8.41
2023-05-10T00:15:49.318Z,8.45
2023-05-10T00:18:51.220Z,8.48
2023-05-10T00:21:53.164Z,8.40
2023-05-10T00:24:55.094Z,8.36
2023-05-10T00:27:58.329Z,8.29
2023-05-10T00:31:00.365Z,8.16
2023-05-10T00:34:02.530Z,8.04
2023-05-10T00:37:04.394Z,7.96
2023-05-10T00:40:07.476Z,7.89
2023-05-10T00:43:09.359Z,7.94
2023-05-10T00:46:12.070Z,7.93
2023-05-10T00:49:14.170Z,7.87
2023-05-10T00:52:16.320Z,7.78
2023-05-10T00:55:19.210Z,7.68
2023-05-10T00:58:21.337Z,7.59
2023-05-10T01:01:23.532Z,7.51
2023-05-10T01:04:26.759Z,7.59
2023-05-10T01:07:29.188Z,7.57
2023-05-10T01:10:32.253Z,7.64
2023-05-10T01:13:37.246Z,7.64
2023-05-10T01:16:41.751Z,7.66
2023-05-10T01:19:43.784Z,7.71
2023-05-10T01:23:23.188Z,7.71
2023-05-10T01:26:46.584Z,7.74
2023-05-10T01:30:21.821Z,7.76
2023-05-10T01:34:06.638Z,7.72
2023-05-10T01:37:21.642Z,7.73
2023-05-10T01:40:43.675Z,7.77
2023-05-10T01:44:32.906Z,7.77
2023-05-10T01:48:04.124Z,7.77
2023-05-10T01:51:07.309Z,7.84
2023-05-10T01:54:11.856Z,7.87
2023-05-10T01:57:15.406Z,7.79
2023-05-10T02:00:20.001Z,7.80
2023-05-10T02:03:24.609Z,7.76
2023-05-10T02:06:28.152Z,7.73
2023-05-10T02:09:33.143Z,7.73
2023-05-10T02:12:42.639Z,7.65
2023-05-10T02:15:48.347Z,7.72
2023-05-10T02:18:51.555Z,7.67
2023-05-10T02:21:54.319Z,7.66
2023-05-10T02:25:00.789Z,7.69
2023-05-10T02:28:06.189Z,7.71
2023-05-10T02:31:10.896Z,7.69
2023-05-10T02:34:13.833Z,7.73
2023-05-10T02:37:19.497Z,7.76
2023-05-10T02:40:23.909Z,7.75
2023-05-10T02:43:26.813Z,7.76
2023-05-10T02:46:29.276Z,7.68
2023-05-10T02:49:31.251Z,7.72
2023-05-10T02:52:41.450Z,7.67
2023-05-10T02:55:47.647Z,7.64
2023-05-10T02:58:49.520Z,7.63
2023-05-10T03:01:51.614Z,7.64
2023-05-10T03:04:53.780Z,7.66
2023-05-10T03:07:56.660Z,7.63
2023-05-10T03:11:17.250Z,7.64
2023-05-10T03:14:51.683Z,7.63
2023-05-10T03:18:03.132Z,7.60
2023-05-10T03:21:09.128Z,7.60
2023-05-10T03:24:13.478Z,7.65
2023-05-10T03:27:16.501Z,7.60
2023-05-10T03:30:19.670Z,7.60
2023-05-10T03:33:21.871Z,7.60
2023-05-10T03:36:23.731Z,7.63
2023-05-10T03:39:54.260Z,7.67
2023-05-10T03:42:56.729Z,7.63
2023-05-10T03:45:58.575Z,7.61
2023-05-10T03:49:00.584Z,7.66
2023-05-10T03:52:02.584Z,7.68
2023-05-10T03:55:04.839Z,7.65
2023-05-10T03:58:06.942Z,7.68
2023-05-10T04:01:08.870Z,7.67
2023-05-10T04:04:11.042Z,7.68
2023-05-10T04:07:13.099Z,7.70
2023-05-10T04:10:15.302Z,7.75
2023-05-10T04:13:17.387Z,7.76
2023-05-10T04:16:19.342Z,7.81
2023-05-10T04:19:21.473Z,7.87
2023-05-10T04:22:23.347Z,7.91
2023-05-10T04:25:25.340Z,7.93
2023-05-10T04:28:27.342Z,7.99
2023-05-10T04:31:29.365Z,8.08
2023-05-10T04:34:31.404Z,8.13
2023-05-10T04:37:33.349Z,8.19
2023-05-10T04:40:35.621Z,8.19
2023-05-10T04:43:38.425Z,8.27
2023-05-10T04:46:40.537Z,8.33
2023-05-10T04:49:42.683Z,8.45
2023-05-10T04:52:44.626Z,8.55
2023-05-10T04:55:47.422Z,8.59
2023-05-10T04:58:49.345Z,8.79
2023-05-10T05:01:51.361Z,8.85
2023-05-10T05:04:53.378Z,9.00
2023-05-10T05:07:55.301Z,9.07
2023-05-10T05:10:57.333Z,9.13
2023-05-10T05:14:00.320Z,9.18
2023-05-10T05:17:02.298Z,9.22
2023-05-10T05:20:04.980Z,9.37
2023-05-10T05:23:07.177Z,9.50
2023-05-10T05:26:09.082Z,9.57
2023-05-10T05:29:11.003Z,9.76
2023-05-10T05:32:12.992Z,9.81
2023-05-10T05:35:15.127Z,9.94
2023-05-10T05:38:18.448Z,9.94
2023-05-10T05:41:21.025Z,10.06
2023-05-10T05:44:22.972Z,10.21
2023-05-10T05:47:24.948Z,10.34
2023-05-10T05:50:27.070Z,10.30
2023-05-10T05:53:29.050Z,10.55
2023-05-10T05:56:31.304Z,11.19
2023-05-10T05:59:33.235Z,11.59
2023-05-10T06:02:35.243Z,11.99
2023-05-10T06:05:37.257Z,12.42
2023-05-10T06:08:39.212Z,12.78
2023-05-10T06:11:41.403Z,13.23
2023-05-10T06:14:43.458Z,13.19
2023-05-10T06:17:45.543Z,13.25
2023-05-10T06:20:47.699Z,14.12
2023-05-10T06:23:49.724Z,14.28
2023-05-10T06:26:51.696Z,14.18
2023-05-10T06:30:02.206Z,14.64
2023-05-10T06:33:11.481Z,14.78
2023-05-10T06:36:14.404Z,14.93
2023-05-10T06:39:17.009Z,14.31
2023-05-10T06:42:18.979Z,14.42
2023-05-10T06:45:21.770Z,15.29
2023-05-10T06:48:23.923Z,15.74
2023-05-10T06:51:26.049Z,15.10
2023-05-10T06:54:47.923Z,16.08
2023-05-10T06:57:49.862Z,16.64
2023-05-10T07:00:51.897Z,16.72
2023-05-10T07:03:53.964Z,16.78
2023-05-10T07:06:55.886Z,16.96
2023-05-10T07:09:58.740Z,17.53
2023-05-10T07:13:02.457Z,16.29
2023-05-10T07:16:05.362Z,16.95
2023-05-10T07:19:07.287Z,17.25
2023-05-10T07:22:09.220Z,18.34
2023-05-10T07:25:11.808Z,16.32
2023-05-10T07:28:14.865Z,17.84
2023-05-10T07:31:16.840Z,18.56
2023-05-10T07:34:18.796Z,18.70
2023-05-10T07:37:20.863Z,18.37
2023-05-10T07:40:22.958Z,18.88
2023-05-10T07:43:24.910Z,18.79
2023-05-10T07:46:26.943Z,18.10
2023-05-10T07:49:28.916Z,18.70
2023-05-10T07:52:30.955Z,19.09
2023-05-10T07:55:33.892Z,19.70
2023-05-10T07:58:35.978Z,19.55
2023-05-10T08:01:37.860Z,19.48
2023-05-10T08:04:39.775Z,19.57
2023-05-10T08:07:41.682Z,20.20
2023-05-10T08:10:43.721Z,20.70
2023-05-10T08:13:49.759Z,20.52
2023-05-10T08:16:51.633Z,20.76
2023-05-10T08:19:53.547Z,21.24
2023-05-10T08:22:55.434Z,21.65
2023-05-10T08:25:57.367Z,22.57
2023-05-10T08:28:59.288Z,22.38
2023-05-10T08:32:01.990Z,21.39
2023-05-10T08:35:04.031Z,19.14
2023-05-10T08:38:06.143Z,20.87
2023-05-10T08:41:08.257Z,20.82
2023-05-10T08:44:10.923Z,20.97
2023-05-10T08:47:14.736Z,20.75
2023-05-10T08:50:18.448Z,20.12
2023-05-10T08:53:22.127Z,19.81
2023-05-10T08:56:25.163Z,21.01
2023-05-10T08:59:27.181Z,21.77
2023-05-10T09:02:29.090Z,21.12
2023-05-10T09:05:31.315Z,20.54
2023-05-10T09:08:33.512Z,21.23
2023-05-10T09:11:36.136Z,22.49
2023-05-10T09:14:38.885Z,23.64
2023-05-10T09:17:42.061Z,22.68
2023-05-10T09:20:43.965Z,22.48
2023-05-10T09:23:48.627Z,19.80
2023-05-10T09:26:50.751Z,19.66
2023-05-10T09:29:55.469Z,21.06
2023-05-10T09:32:59.284Z,21.21
2023-05-10T09:36:09.334Z,19.74
2023-05-10T09:39:11.605Z,20.37
2023-05-10T09:42:13.552Z,20.09
2023-05-10T09:45:15.549Z,19.86
2023-05-10T09:48:17.721Z,20.13
2023-05-10T09:51:24.364Z,20.27
2023-05-10T09:54:26.464Z,20.50
2023-05-10T09:57:28.328Z,19.07
2023-05-10T10:00:36.938Z,19.22
2023-05-10T10:03:43.603Z,19.90
2023-05-10T10:06:46.249Z,19.50
2023-05-10T10:09:48.387Z,19.95
2023-05-10T10:12:50.639Z,20.20
2023-05-10T10:15:53.686Z,19.89
2023-05-10T10:18:56.551Z,20.38
2023-05-10T10:22:00.035Z,21.27
2023-05-10T10:25:02.175Z,21.35
2023-05-10T10:28:31.531Z,21.11
2023-05-10T10:31:48.610Z,22.11
2023-05-10T10:34:50.953Z,21.44
2023-05-10T10:37:52.869Z,21.35
2023-05-10T10:41:10.401Z,21.96
2023-05-10T10:44:27.415Z,21.10
2023-05-10T10:47:33.983Z,20.56
2023-05-10T10:50:45.847Z,19.91
2023-05-10T10:53:49.157Z,21.03
2023-05-10T10:57:17.101Z,21.07
2023-05-10T11:00:33.438Z,20.08
2023-05-10T11:03:35.445Z,20.40
2023-05-10T11:06:37.401Z,20.20
2023-05-10T11:09:42.360Z,21.04
2023-05-10T11:13:12.707Z,21.94
2023-05-10T11:16:14.894Z,23.14
2023-05-10T11:19:18.488Z,22.18
2023-05-10T11:22:20.502Z,21.88
2023-05-10T11:25:28.128Z,20.32
2023-05-10T11:28:30.051Z,20.95
2023-05-10T11:31:32.267Z,22.20
2023-05-10T11:34:34.854Z,22.71
2023-05-10T11:37:36.965Z,22.42
2023-05-10T11:40:40.481Z,21.30
2023-05-10T11:43:43.739Z,20.38
2023-05-10T11:46:45.938Z,21.07
2023-05-10T11:49:49.966Z,21.50
2023-05-10T11:52:56.577Z,21.79
2023-05-10T11:56:06.656Z,22.24
2023-05-10T11:59:09.320Z,22.40
2023-05-10T12:02:11.577Z,22.79
2023-05-10T12:05:14.299Z,23.43
2023-05-10T12:08:21.203Z,23.48
2023-05-10T12:11:26.893Z,23.62
2023-05-10T12:14:29.805Z,22.71
2023-05-10T12:17:31.808Z,24.20
2023-05-10T12:20:33.737Z,25.59
2023-05-10T12:23:35.758Z,26.61
2023-05-10T12:29:55.778Z,23.25
2023-05-10T12:33:02.877Z,22.61
2023-05-10T12:36:05.064Z,23.07
2023-05-10T12:39:06.983Z,23.34
2023-05-10T12:42:08.933Z,21.19
2023-05-10T12:45:11.211Z,20.87
2023-05-10T12:48:13.109Z,20.77
2023-05-10T12:51:18.170Z,21.62
2023-05-10T12:54:20.296Z,22.60
2023-05-10T12:57:22.829Z,22.64
2023-05-10T13:00:24.910Z,22.92
2023-05-10T13:03:26.723Z,23.16
2023-05-10T13:06:28.764Z,21.90
2023-05-10T13:09:30.838Z,22.94
2023-05-10T13:12:33.107Z,22.23
2023-05-10T13:15:35.223Z,22.02
2023-05-10T13:18:37.203Z,23.93
2023-05-10T13:21:39.076Z,23.41
2023-05-10T13:24:40.883Z,24.40
2023-05-10T13:27:42.868Z,24.40
2023-05-10T13:30:44.976Z,24.40
2023-05-10T13:33:46.839Z,24.32
2023-05-10T13:36:48.950Z,23.99
2023-05-10T13:39:50.834Z,24.15
2023-05-10T13:42:54.030Z,22.93
2023-05-10T13:45:55.995Z,22.46
2023-05-10T13:48:57.932Z,22.36
2023-05-10T13:52:00.039Z,21.68
2023-05-10T13:55:01.824Z,21.43
2023-05-10T13:58:03.863Z,21.89
2023-05-10T14:01:05.956Z,21.10
2023-05-10T14:04:11.414Z,20.86
2023-05-10T14:07:13.366Z,20.93
2023-05-10T14:10:15.358Z,21.84
2023-05-10T14:13:17.259Z,22.67
2023-05-10T14:16:19.236Z,22.64
2023-05-10T14:19:21.438Z,21.88
2023-05-10T14:22:23.694Z,20.97
2023-05-10T14:25:25.800Z,21.10
2023-05-10T14:28:27.791Z,21.51
2023-05-10T14:31:31.466Z,21.83
2023-05-10T14:34:33.653Z,22.43
2023-05-10T14:37:35.899Z,22.72
2023-05-10T14:40:37.732Z,22.17
2023-05-10T14:43:39.600Z,22.02
2023-05-10T14:46:41.510Z,20.91
2023-05-10T14:49:43.385Z,21.06
2023-05-10T14:52:45.639Z,20.88
2023-05-10T14:55:47.749Z,21.65
2023-05-10T14:58:50.923Z,22.08
2023-05-10T15:01:52.838Z,21.39
2023-05-10T15:04:55.165Z,20.71
2023-05-10T15:07:57.448Z,20.30
2023-05-10T15:10:59.256Z,20.50
2023-05-10T15:14:01.160Z,20.54
2023-05-10T15:17:03.327Z,20.54
2023-05-10T15:20:05.963Z,20.25
2023-05-10T15:23:08.344Z,20.21
2023-05-10T15:26:10.200Z,20.76
2023-05-10T15:29:12.092Z,21.03
2023-05-10T15:32:14.157Z,21.44
2023-05-10T15:35:16.489Z,21.33
2023-05-10T15:38:19.445Z,20.92
2023-05-10T15:41:22.152Z,20.87
2023-05-10T15:44:25.432Z,21.29
2023-05-10T15:47:28.746Z,21.38
2023-05-10T15:50:30.723Z,20.86
2023-05-10T15:53:32.604Z,20.94
2023-05-10T15:56:35.300Z,20.78
2023-05-10T15:59:37.880Z,20.43
2023-05-10T16:02:40.902Z,20.40
2023-05-10T16:05:43.027Z,20.27
2023-05-10T16:08:45.021Z,20.00
2023-05-10T16:11:47.015Z,19.89
2023-05-10T16:14:48.922Z,19.80
2023-05-10T16:17:51.212Z,19.78
2023-05-10T16:20:54.126Z,19.67
2023-05-10T16:23:56.066Z,19.70
2023-05-10T16:26:58.358Z,19.70
2023-05-10T16:30:00.402Z,19.56
2023-05-10T16:33:02.634Z,19.42
2023-05-10T16:36:06.200Z,19.27
2023-05-10T16:39:09.875Z,19.04
2023-05-10T16:42:11.794Z,19.07
2023-05-10T16:45:14.181Z,19.05
2023-05-10T16:48:16.273Z,19.12
2023-05-10T16:51:18.387Z,19.22
2023-05-10T16:54:22.020Z,19.08
2023-05-10T16:57:24.389Z,19.06
2023-05-10T17:00:27.282Z,19.15
2023-05-10T17:03:29.380Z,18.87
2023-05-10T17:06:31.476Z,18.75
2023-05-10T17:09:33.338Z,18.78
2023-05-10T17:12:35.262Z,18.61
2023-05-10T17:15:37.851Z,18.65
2023-05-10T17:18:41.944Z,18.53
2023-05-10T17:21:43.961Z,18.51
2023-05-10T17:24:46.623Z,18.43
2023-05-10T17:27:48.549Z,18.29
2023-05-10T17:30:57.443Z,18.30
2023-05-10T17:34:00.386Z,18.26
2023-05-10T17:37:02.549Z,18.17
2023-05-10T17:40:05.960Z,18.04
2023-05-10T17:43:07.983Z,17.97
2023-05-10T17:46:10.063Z,17.86
2023-05-10T17:49:12.073Z,17.79
2023-05-10T17:52:13.936Z,17.68
2023-05-10T17:55:16.200Z,17.62
2023-05-10T17:58:21.200Z,17.54
2023-05-10T18:01:23.155Z,17.45
2023-05-10T18:04:26.148Z,17.37
2023-05-10T18:07:30.121Z,17.30
2023-05-10T18:10:32.471Z,17.18
2023-05-10T18:13:34.458Z,17.15
2023-05-10T18:16:36.734Z,17.07
2023-05-10T18:19:39.877Z,17.00
2023-05-10T18:22:42.170Z,16.96
2023-05-10T18:25:44.517Z,16.90
2023-05-10T18:28:46.882Z,16.89
2023-05-10T18:31:49.708Z,16.82
2023-05-10T18:34:53.952Z,16.77
2023-05-10T18:37:58.429Z,16.75
2023-05-10T18:41:01.326Z,16.68
2023-05-10T18:44:04.362Z,16.65
2023-05-10T18:47:07.633Z,16.62
2023-05-10T18:50:12.905Z,16.56
2023-05-10T18:53:15.790Z,16.57
2023-05-10T18:56:19.753Z,16.51
2023-05-10T18:59:23.414Z,16.46
2023-05-10T19:02:27.243Z,16.45
2023-05-10T19:05:31.799Z,16.45
2023-05-10T19:08:36.762Z,16.41
2023-05-10T19:11:41.497Z,16.35
2023-05-10T19:14:45.452Z,16.39
2023-05-10T19:17:52.892Z,16.33
2023-05-10T19:20:56.644Z,16.32
2023-05-10T19:24:02.421Z,16.28
2023-05-10T19:27:06.385Z,16.19
2023-05-10T19:30:10.004Z,16.15
2023-05-10T19:33:13.312Z,16.14
2023-05-10T19:36:16.712Z,16.03
2023-05-10T19:39:19.723Z,16.05
2023-05-10T19:42:23.261Z,16.00
2023-05-10T19:45:26.944Z,16.00
2023-05-10T19:48:31.031Z,15.93
2023-05-10T19:51:34.062Z,15.89
2023-05-10T19:54:36.923Z,15.86
2023-05-10T19:57:39.481Z,15.82
2023-05-10T20:00:42.220Z,15.75
2023-05-10T20:03:44.866Z,15.74
2023-05-10T20:06:47.818Z,15.66
2023-05-10T20:09:51.275Z,15.61
2023-05-10T20:12:53.980Z,15.57
2023-05-10T20:15:58.176Z,15.50
2023-05-10T20:19:01.670Z,15.47
2023-05-10T20:22:05.802Z,15.47
2023-05-10T20:25:08.766Z,15.47
2023-05-10T20:28:13.239Z,15.40
2023-05-10T20:31:16.282Z,15.38
2023-05-10T20:34:19.261Z,15.35
2023-05-10T20:37:22.921Z,15.30
2023-05-10T20:40:25.936Z,15.26
2023-05-10T20:43:29.296Z,15.20
2023-05-10T20:46:33.133Z,15.16
2023-05-10T20:49:37.934Z,15.18
2023-05-10T20:52:40.240Z,15.22
2023-05-10T20:55:42.150Z,15.24
2023-05-10T20:58:44.394Z,15.19
2023-05-10T21:01:46.286Z,15.18
2023-05-10T21:04:48.601Z,15.17
2023-05-10T21:07:50.710Z,15.15
2023-05-10T21:10:52.656Z,15.15
2023-05-10T21:13:54.619Z,15.11
2023-05-10T21:16:56.770Z,15.17
2023-05-10T21:19:58.706Z,15.06
2023-05-10T21:23:00.586Z,15.08
2023-05-10T21:26:03.738Z,15.06
2023-05-10T21:29:06.312Z,15.00
2023-05-10T21:32:08.278Z,14.98
2023-05-10T21:35:10.494Z,14.98
2023-05-10T21:38:12.491Z,14.91
2023-05-10T21:41:14.337Z,14.84
2023-05-10T21:44:16.466Z,14.82
2023-05-10T21:47:18.448Z,14.79
2023-05-10T21:50:20.515Z,14.78
2023-05-10T21:53:22.720Z,14.72
2023-05-10T21:56:24.823Z,14.67
2023-05-10T21:59:26.817Z,14.66
2023-05-10T22:02:29.574Z,14.59
2023-05-10T22:05:31.780Z,14.58
2023-05-10T22:08:33.666Z,14.54
2023-05-10T22:11:35.815Z,14.54
2023-05-10T22:14:37.769Z,14.55
2023-05-10T22:17:40.544Z,14.52
2023-05-10T22:20:45.479Z,14.53
2023-05-10T22:23:47.411Z,14.49
2023-05-10T22:26:49.291Z,14.47
2023-05-10T22:29:51.430Z,14.42
2023-05-10T22:32:53.576Z,14.40
2023-05-10T22:35:55.948Z,14.40
2023-05-10T22:38:58.215Z,14.35
2023-05-10T22:42:00.262Z,14.33
2023-05-10T22:45:02.187Z,14.24
2023-05-10T22:48:05.301Z,14.29
2023-05-10T22:51:07.469Z,14.26
2023-05-10T22:54:09.422Z,14.21
2023-05-10T22:57:11.676Z,14.17
2023-05-10T23:00:14.237Z,14.14
2023-05-10T23:03:16.249Z,14.03
2023-05-10T23:06:18.601Z,14.06
2023-05-10T23:09:20.558Z,13.95
2023-05-10T23:12:22.540Z,13.91
2023-05-10T23:15:24.525Z,13.88
2023-05-10T23:18:26.530Z,13.85
2023-05-10T23:21:31.900Z,13.81
2023-05-10T23:24:34.214Z,13.77
2023-05-10T23:27:36.174Z,13.75
2023-05-10T23:30:38.110Z,13.72
2023-05-10T23:33:40.005Z,13.66
2023-05-10T23:36:42.326Z,13.63
2023-05-10T23:39:44.931Z,13.59
2023-05-10T23:42:46.900Z,13.52
2023-05-10T23:45:56.841Z,13.55
2023-05-10T23:48:59.395Z,13.48
2023-05-10T23:52:01.363Z,13.47
2023-05-10T23:55:03.506Z,13.50
2023-05-10T23:58:05.610Z,13.48
